PWSweather.com
Personal Weather Stations
Station Observations
URBANDALE
Westwind Acres And Meredith Hills, Urbandale, IA 50322

Westwind Acres And Meredith HillsUrbandale, IA 50322

Lat: 41.643, Lon: -93.709

Elevation: 928

Station Type:

http://urbandaleweather.com

Latest ConditionsUpdated 1:32:28 PM CST Saturday, Dec 7, 2019
Currently Today's Max Today's Min Today's Average
Temperature 43.9°F6.6°C 43.9°F6.6°C 24.3°F-4.3°C 30.4°F-0.9°C
Dew Point 27.3°F-2.6°C 29.3°F-1.5°C 20.5°F-6.4°C 24.1°F-4.4°C
Winds 2.9 mph S4.7 kmh S 4.0 mph -6.4 kmh - - 1.8 mph 2.9 kmh
Wind Gusts 9.0 mph14.5 kmh 9.0 mph14.5 kmh - -
Humidity 52% 87% 52% 78%
Pressure 30.09 in1019.0 mb 30.31 in1026.4 mb 30.09 in1019.0 mb -
Hour Temp Dew Point Humidity Winds Wind Gusts Pressure Precip Precip Rate Daily Precip Total
01:32 PM 43.9°F6.6°C 27.3°F-2.6°C 52% 2.9 mph S4.7 kmh S 9.0 mph14.5 kmh 30.09 in1019.0 mb 0.00 in0.0 mm 0.00 in0.0 mm 0.00 in0.0 mm
01:27 PM 43.9°F6.6°C 27.9°F-2.3°C 53% 2.9 mph S4.7 kmh S 6.9 mph11.1 kmh 30.09 in1019.0 mb 0.00 in0.0 mm 0.00 in0.0 mm 0.00 in0.0 mm
01:22 PM 43.9°F6.6°C 28.4°F-2.0°C 54% 2.0 mph SW3.2 kmh SW 6.9 mph11.1 kmh 30.10 in1019.3 mb 0.00 in0.0 mm 0.00 in0.0 mm 0.00 in0.0 mm
01:17 PM 43.7°F6.5°C 28.2°F-2.1°C 54% 2.0 mph S3.2 kmh S 6.0 mph9.7 kmh 30.10 in1019.3 mb 0.00 in0.0 mm 0.00 in0.0 mm 0.00 in0.0 mm
01:12 PM 43.5°F6.4°C 28.0°F-2.2°C 54% 2.0 mph SW3.2 kmh SW 8.1 mph13.0 kmh 30.10 in1019.3 mb 0.00 in0.0 mm 0.00 in0.0 mm 0.00 in0.0 mm
01:07 PM 43.3°F6.3°C 28.8°F-1.8°C 56% 2.0 mph S3.2 kmh S 8.1 mph13.0 kmh 30.11 in1019.6 mb 0.00 in0.0 mm 0.00 in0.0 mm 0.00 in0.0 mm
01:02 PM 43.0°F6.1°C 28.8°F-1.8°C 57% 2.0 mph ESE3.2 kmh ESE 6.0 mph9.7 kmh 30.11 in1019.6 mb 0.00 in0.0 mm 0.00 in0.0 mm 0.00 in0.0 mm
12:57 PM 43.0°F6.1°C 28.8°F-1.8°C 57% 0.9 mph SW1.4 kmh SW 4.0 mph6.4 kmh 30.12 in1020.0 mb 0.00 in0.0 mm 0.00 in0.0 mm 0.00 in0.0 mm
12:52 PM 42.8°F6.0°C 29.1°F-1.6°C 58% 2.0 mph SSW3.2 kmh SSW 2.9 mph4.7 kmh 30.12 in1020.0 mb 0.00 in0.0 mm 0.00 in0.0 mm 0.00 in0.0 mm
12:47 PM 42.6°F5.9°C 28.4°F-2.0°C 57% 2.0 mph S3.2 kmh S 6.0 mph9.7 kmh 30.12 in1020.0 mb 0.00 in0.0 mm 0.00 in0.0 mm 0.00 in0.0 mm
12:42 PM 42.8°F6.0°C 28.6°F-1.9°C 57% 2.0 mph SSE3.2 kmh SSE 6.0 mph9.7 kmh 30.12 in1020.0 mb 0.00 in0.0 mm 0.00 in0.0 mm 0.00 in0.0 mm
12:37 PM 43.0°F6.1°C 29.3°F-1.5°C 58% 0.9 mph SSW1.4 kmh SSW 4.9 mph7.9 kmh 30.12 in1020.0 mb 0.00 in0.0 mm 0.00 in0.0 mm 0.00 in0.0 mm
12:32 PM 42.6°F5.9°C 28.9°F-1.7°C 58% 2.0 mph SW3.2 kmh SW 8.1 mph13.0 kmh 30.12 in1020.0 mb 0.00 in0.0 mm 0.00 in0.0 mm 0.00 in0.0 mm
12:27 PM 42.3°F5.7°C 28.9°F-1.7°C 59% 2.0 mph SSW3.2 kmh SSW 7.0 mph11.3 kmh 30.13 in1020.3 mb 0.00 in0.0 mm 0.00 in0.0 mm 0.00 in0.0 mm
12:22 PM 42.3°F5.7°C 29.3°F-1.5°C 60% 2.0 mph SW3.2 kmh SW 4.0 mph6.4 kmh 30.13 in1020.3 mb 0.00 in0.0 mm 0.00 in0.0 mm 0.00 in0.0 mm
12:17 PM 41.9°F5.5°C 28.9°F-1.7°C 60% 2.9 mph S4.7 kmh S 6.9 mph11.1 kmh 30.13 in1020.3 mb 0.00 in0.0 mm 0.00 in0.0 mm 0.00 in0.0 mm
12:12 PM 41.7°F5.4°C 28.9°F-1.7°C 60% 2.0 mph SW3.2 kmh SW 6.9 mph11.1 kmh 30.13 in1020.3 mb 0.00 in0.0 mm 0.00 in0.0 mm 0.00 in0.0 mm
12:07 PM 41.7°F5.4°C 28.9°F-1.7°C 60% 0.9 mph SSW1.4 kmh SSW 7.0 mph11.3 kmh 30.13 in1020.3 mb 0.00 in0.0 mm 0.00 in0.0 mm 0.00 in0.0 mm
12:02 PM 41.5°F5.3°C 29.1°F-1.6°C 61% 2.0 mph SSW3.2 kmh SSW 2.9 mph4.7 kmh 30.14 in1020.7 mb 0.00 in0.0 mm 0.00 in0.0 mm 0.00 in0.0 mm
11:57 AM 41.4°F5.2°C 28.9°F-1.7°C 61% 2.0 mph SW3.2 kmh SW 6.0 mph9.7 kmh 30.14 in1020.7 mb 0.00 in0.0 mm 0.00 in0.0 mm 0.00 in0.0 mm
11:52 AM 41.4°F5.2°C 28.9°F-1.7°C 61% 2.0 mph SW3.2 kmh SW 4.9 mph7.9 kmh 30.14 in1020.7 mb 0.00 in0.0 mm 0.00 in0.0 mm 0.00 in0.0 mm
11:47 AM 41.2°F5.1°C 29.1°F-1.6°C 62% 0.9 mph SE1.4 kmh SE 6.0 mph9.7 kmh 30.15 in1021.0 mb 0.00 in0.0 mm 0.00 in0.0 mm 0.00 in0.0 mm
11:42 AM 41.0°F5.0°C 28.9°F-1.7°C 62% 2.0 mph SSE3.2 kmh SSE 6.9 mph11.1 kmh 30.15 in1021.0 mb 0.00 in0.0 mm 0.00 in0.0 mm 0.00 in0.0 mm
11:37 AM 40.8°F4.9°C 28.8°F-1.8°C 62% 2.0 mph SE3.2 kmh SE 8.1 mph13.0 kmh 30.15 in1021.0 mb 0.00 in0.0 mm 0.00 in0.0 mm 0.00 in0.0 mm
11:32 AM 40.8°F4.9°C 28.4°F-2.0°C 61% 2.0 mph S3.2 kmh S 6.0 mph9.7 kmh 30.16 in1021.3 mb 0.00 in0.0 mm 0.00 in0.0 mm 0.00 in0.0 mm
11:27 AM 40.5°F4.7°C 28.4°F-2.0°C 62% 2.0 mph SW3.2 kmh SW 4.9 mph7.9 kmh 30.16 in1021.3 mb 0.00 in0.0 mm 0.00 in0.0 mm 0.00 in0.0 mm
11:22 AM 40.3°F4.6°C 28.2°F-2.1°C 62% 2.9 mph S4.7 kmh S 6.9 mph11.1 kmh 30.15 in1021.0 mb 0.00 in0.0 mm 0.00 in0.0 mm 0.00 in0.0 mm
11:17 AM 40.1°F4.5°C 28.6°F-1.9°C 63% 2.9 mph WSW4.7 kmh WSW 4.0 mph6.4 kmh 30.16 in1021.3 mb 0.00 in0.0 mm 0.00 in0.0 mm 0.00 in0.0 mm
11:12 AM 39.9°F4.4°C 28.4°F-2.0°C 63% 2.0 mph SW3.2 kmh SW 9.0 mph14.5 kmh 30.16 in1021.3 mb 0.00 in0.0 mm 0.00 in0.0 mm 0.00 in0.0 mm
11:07 AM 39.6°F4.2°C 29.1°F-1.6°C 66% 2.0 mph WSW3.2 kmh WSW 4.0 mph6.4 kmh 30.17 in1021.7 mb 0.00 in0.0 mm 0.00 in0.0 mm 0.00 in0.0 mm
11:02 AM 39.0°F3.9°C 28.2°F-2.1°C 65% 2.9 mph SE4.7 kmh SE 6.0 mph9.7 kmh 30.17 in1021.7 mb 0.00 in0.0 mm 0.00 in0.0 mm 0.00 in0.0 mm
10:56 AM 38.7°F3.7°C 28.2°F-2.1°C 66% 2.0 mph WSW3.2 kmh WSW 6.0 mph9.7 kmh 30.18 in1022.0 mb 0.00 in0.0 mm 0.00 in0.0 mm 0.00 in0.0 mm
10:51 AM 38.3°F3.5°C 28.2°F-2.1°C 67% 2.0 mph WSW3.2 kmh WSW 4.9 mph7.9 kmh 30.18 in1022.0 mb 0.00 in0.0 mm 0.00 in0.0 mm 0.00 in0.0 mm
10:46 AM 37.9°F3.3°C 28.0°F-2.2°C 67% 2.9 mph SSW4.7 kmh SSW 6.9 mph11.1 kmh 30.18 in1022.0 mb 0.00 in0.0 mm 0.00 in0.0 mm 0.00 in0.0 mm
10:41 AM 37.8°F3.2°C 27.9°F-2.3°C 67% 2.9 mph SSW4.7 kmh SSW 8.1 mph13.0 kmh 30.18 in1022.0 mb 0.00 in0.0 mm 0.00 in0.0 mm 0.00 in0.0 mm
10:36 AM 37.4°F3.0°C 27.9°F-2.3°C 68% 2.9 mph S4.7 kmh S 6.0 mph9.7 kmh 30.19 in1022.4 mb 0.00 in0.0 mm 0.00 in0.0 mm 0.00 in0.0 mm
10:31 AM 37.0°F2.8°C 27.9°F-2.3°C 69% 2.9 mph S4.7 kmh S 6.0 mph9.7 kmh 30.19 in1022.4 mb 0.00 in0.0 mm 0.00 in0.0 mm 0.00 in0.0 mm
10:26 AM 36.9°F2.7°C 27.7°F-2.4°C 69% 2.9 mph WSW4.7 kmh WSW 9.0 mph14.5 kmh 30.19 in1022.4 mb 0.00 in0.0 mm 0.00 in0.0 mm 0.00 in0.0 mm
10:21 AM 36.5°F2.5°C 27.3°F-2.6°C 69% 2.9 mph SSW4.7 kmh SSW 6.9 mph11.1 kmh 30.19 in1022.4 mb 0.00 in0.0 mm 0.00 in0.0 mm 0.00 in0.0 mm
10:16 AM 36.1°F2.3°C 27.3°F-2.6°C 70% 2.0 mph SSE3.2 kmh SSE 7.0 mph11.3 kmh 30.19 in1022.4 mb 0.00 in0.0 mm 0.00 in0.0 mm 0.00 in0.0 mm
10:11 AM 35.8°F2.1°C 27.3°F-2.6°C 71% 2.0 mph SSE3.2 kmh SSE 4.9 mph7.9 kmh 30.19 in1022.4 mb 0.00 in0.0 mm 0.00 in0.0 mm 0.00 in0.0 mm
10:06 AM 35.4°F1.9°C 27.0°F-2.8°C 71% 2.9 mph SSE4.7 kmh SSE 6.0 mph9.7 kmh 30.19 in1022.4 mb 0.00 in0.0 mm 0.00 in0.0 mm 0.00 in0.0 mm
10:01 AM 35.2°F1.8°C 27.1°F-2.7°C 72% 2.0 mph SSW3.2 kmh SSW 7.0 mph11.3 kmh 30.19 in1022.4 mb 0.00 in0.0 mm 0.00 in0.0 mm 0.00 in0.0 mm
09:56 AM 34.9°F1.6°C 26.8°F-2.9°C 72% 2.0 mph SSW3.2 kmh SSW 6.0 mph9.7 kmh 30.20 in1022.7 mb 0.00 in0.0 mm 0.00 in0.0 mm 0.00 in0.0 mm
09:51 AM 34.5°F1.4°C 26.8°F-2.9°C 73% 2.0 mph S3.2 kmh S 4.9 mph7.9 kmh 30.20 in1022.7 mb 0.00 in0.0 mm 0.00 in0.0 mm 0.00 in0.0 mm
09:46 AM 34.2°F1.2°C 26.8°F-2.9°C 74% 2.0 mph SW3.2 kmh SW 6.9 mph11.1 kmh 30.20 in1022.7 mb 0.00 in0.0 mm 0.00 in0.0 mm 0.00 in0.0 mm
09:41 AM 33.6°F0.9°C 26.6°F-3.0°C 75% 2.0 mph S3.2 kmh S 4.9 mph7.9 kmh 30.20 in1022.7 mb 0.00 in0.0 mm 0.00 in0.0 mm 0.00 in0.0 mm
09:36 AM 33.3°F0.7°C 26.2°F-3.2°C 75% 2.0 mph SSW3.2 kmh SSW 6.9 mph11.1 kmh 30.20 in1022.7 mb 0.00 in0.0 mm 0.00 in0.0 mm 0.00 in0.0 mm
09:31 AM 32.9°F0.5°C 26.2°F-3.2°C 76% 2.0 mph SW3.2 kmh SW 6.0 mph9.7 kmh 30.20 in1022.7 mb 0.00 in0.0 mm 0.00 in0.0 mm 0.00 in0.0 mm
09:26 AM 32.5°F0.3°C 25.9°F-3.4°C 76% 2.0 mph SE3.2 kmh SE 6.0 mph9.7 kmh 30.20 in1022.7 mb 0.00 in0.0 mm 0.00 in0.0 mm 0.00 in0.0 mm
09:21 AM 32.2°F0.1°C 25.7°F-3.5°C 77% 2.0 mph SSW3.2 kmh SSW 6.0 mph9.7 kmh 30.20 in1022.7 mb 0.00 in0.0 mm 0.00 in0.0 mm 0.00 in0.0 mm
09:16 AM 31.8°F-0.1°C 25.7°F-3.5°C 78% 2.0 mph S3.2 kmh S 4.0 mph6.4 kmh 30.20 in1022.7 mb 0.00 in0.0 mm 0.00 in0.0 mm 0.00 in0.0 mm
09:11 AM 31.5°F-0.3°C 25.3°F-3.7°C 78% 2.0 mph SSW3.2 kmh SSW 4.9 mph7.9 kmh 30.20 in1022.7 mb 0.00 in0.0 mm 0.00 in0.0 mm 0.00 in0.0 mm
09:06 AM 31.3°F-0.4°C 25.2°F-3.8°C 78% 2.0 mph S3.2 kmh S 6.9 mph11.1 kmh 30.20 in1022.7 mb 0.00 in0.0 mm 0.00 in0.0 mm 0.00 in0.0 mm
09:01 AM 30.9°F-0.6°C 24.8°F-4.0°C 78% 2.9 mph SW4.7 kmh SW 6.9 mph11.1 kmh 30.20 in1022.7 mb 0.00 in0.0 mm 0.00 in0.0 mm 0.00 in0.0 mm
08:56 AM 30.7°F-0.7°C 25.0°F-3.9°C 79% 2.9 mph SSW4.7 kmh SSW 6.9 mph11.1 kmh 30.20 in1022.7 mb 0.00 in0.0 mm 0.00 in0.0 mm 0.00 in0.0 mm
08:51 AM 30.4°F-0.9°C 25.0°F-3.9°C 80% 2.0 mph SSW3.2 kmh SSW 6.0 mph9.7 kmh 30.20 in1022.7 mb 0.00 in0.0 mm 0.00 in0.0 mm 0.00 in0.0 mm
08:46 AM 30.0°F-1.1°C 24.6°F-4.1°C 80% 2.9 mph SSW4.7 kmh SSW 4.9 mph7.9 kmh 30.20 in1022.7 mb 0.00 in0.0 mm 0.00 in0.0 mm 0.00 in0.0 mm
08:41 AM 29.8°F-1.2°C 24.8°F-4.0°C 81% 2.9 mph SW4.7 kmh SW 6.9 mph11.1 kmh 30.20 in1022.7 mb 0.00 in0.0 mm 0.00 in0.0 mm 0.00 in0.0 mm
08:36 AM 29.5°F-1.4°C 24.4°F-4.2°C 81% 2.9 mph SSE4.7 kmh SSE 8.1 mph13.0 kmh 30.20 in1022.7 mb 0.00 in0.0 mm 0.00 in0.0 mm 0.00 in0.0 mm
08:31 AM 28.9°F-1.7°C 24.1°F-4.4°C 82% 2.0 mph SSW3.2 kmh SSW 6.0 mph9.7 kmh 30.20 in1022.7 mb 0.00 in0.0 mm 0.00 in0.0 mm 0.00 in0.0 mm
08:26 AM 28.8°F-1.8°C 24.3°F-4.3°C 83% 2.9 mph SSE4.7 kmh SSE 6.9 mph11.1 kmh 30.20 in1022.7 mb 0.00 in0.0 mm 0.00 in0.0 mm 0.00 in0.0 mm
08:21 AM 28.4°F-2.0°C 23.9°F-4.5°C 83% 2.9 mph SW4.7 kmh SW 8.0 mph12.9 kmh 30.20 in1022.7 mb 0.00 in0.0 mm 0.00 in0.0 mm 0.00 in0.0 mm
08:16 AM 28.0°F-2.2°C 23.9°F-4.5°C 84% 2.9 mph SW4.7 kmh SW 6.9 mph11.1 kmh 30.20 in1022.7 mb 0.00 in0.0 mm 0.00 in0.0 mm 0.00 in0.0 mm
08:11 AM 27.7°F-2.4°C 23.5°F-4.7°C 84% 2.9 mph SW4.7 kmh SW 8.1 mph13.0 kmh 30.20 in1022.7 mb 0.00 in0.0 mm 0.00 in0.0 mm 0.00 in0.0 mm
08:06 AM 27.7°F-2.4°C 23.5°F-4.7°C 84% 2.9 mph SSW4.7 kmh SSW 8.0 mph12.9 kmh 30.20 in1022.7 mb 0.00 in0.0 mm 0.00 in0.0 mm 0.00 in0.0 mm
08:01 AM 27.3°F-2.6°C 23.4°F-4.8°C 85% 2.9 mph S4.7 kmh S 6.9 mph11.1 kmh 30.20 in1022.7 mb 0.00 in0.0 mm 0.00 in0.0 mm 0.00 in0.0 mm
07:56 AM 27.1°F-2.7°C 23.2°F-4.9°C 85% 2.9 mph SSW4.7 kmh SSW 7.0 mph11.3 kmh 30.20 in1022.7 mb 0.00 in0.0 mm 0.00 in0.0 mm 0.00 in0.0 mm
07:51 AM 27.0°F-2.8°C 23.4°F-4.8°C 86% 2.9 mph S4.7 kmh S 6.0 mph9.7 kmh 30.21 in1023.0 mb 0.00 in0.0 mm 0.00 in0.0 mm 0.00 in0.0 mm
07:46 AM 26.8°F-2.9°C 23.2°F-4.9°C 86% 2.9 mph S4.7 kmh S 6.0 mph9.7 kmh 30.21 in1023.0 mb 0.00 in0.0 mm 0.00 in0.0 mm 0.00 in0.0 mm
07:41 AM 26.6°F-3.0°C 23.0°F-5.0°C 86% 2.0 mph S3.2 kmh S 6.0 mph9.7 kmh 30.21 in1023.0 mb 0.00 in0.0 mm 0.00 in0.0 mm 0.00 in0.0 mm
07:36 AM 26.4°F-3.1°C 22.8°F-5.1°C 86% 2.0 mph SSW3.2 kmh SSW 4.9 mph7.9 kmh 30.21 in1023.0 mb 0.00 in0.0 mm 0.00 in0.0 mm 0.00 in0.0 mm
07:31 AM 26.4°F-3.1°C 22.8°F-5.1°C 86% 2.0 mph SW3.2 kmh SW 4.9 mph7.9 kmh 30.21 in1023.0 mb 0.00 in0.0 mm 0.00 in0.0 mm 0.00 in0.0 mm
07:26 AM 26.4°F-3.1°C 22.8°F-5.1°C 86% 2.0 mph SW3.2 kmh SW 7.0 mph11.3 kmh 30.21 in1023.0 mb 0.00 in0.0 mm 0.00 in0.0 mm 0.00 in0.0 mm
07:21 AM 26.2°F-3.2°C 22.6°F-5.2°C 86% 2.0 mph SSW3.2 kmh SSW 4.9 mph7.9 kmh 30.21 in1023.0 mb 0.00 in0.0 mm 0.00 in0.0 mm 0.00 in0.0 mm
07:16 AM 26.2°F-3.2°C 22.6°F-5.2°C 86% 2.9 mph SSW4.7 kmh SSW 6.9 mph11.1 kmh 30.21 in1023.0 mb 0.00 in0.0 mm 0.00 in0.0 mm 0.00 in0.0 mm
07:11 AM 26.2°F-3.2°C 22.6°F-5.2°C 86% 4.0 mph SW6.4 kmh SW 6.0 mph9.7 kmh 30.21 in1023.0 mb 0.00 in0.0 mm 0.00 in0.0 mm 0.00 in0.0 mm
07:06 AM 26.1°F-3.3°C 22.5°F-5.3°C 86% 4.0 mph SW6.4 kmh SW 9.0 mph14.5 kmh 30.21 in1023.0 mb 0.00 in0.0 mm 0.00 in0.0 mm 0.00 in0.0 mm
07:01 AM 26.1°F-3.3°C 22.6°F-5.2°C 87% 4.0 mph SSW6.4 kmh SSW 6.9 mph11.1 kmh 30.21 in1023.0 mb 0.00 in0.0 mm 0.00 in0.0 mm 0.00 in0.0 mm
06:56 AM 25.9°F-3.4°C 22.5°F-5.3°C 87% 2.9 mph SSW4.7 kmh SSW 9.0 mph14.5 kmh 30.21 in1023.0 mb 0.00 in0.0 mm 0.00 in0.0 mm 0.00 in0.0 mm
06:51 AM 25.9°F-3.4°C 22.5°F-5.3°C 87% 2.0 mph S3.2 kmh S 6.0 mph9.7 kmh 30.21 in1023.0 mb 0.00 in0.0 mm 0.00 in0.0 mm 0.00 in0.0 mm
06:46 AM 25.9°F-3.4°C 22.5°F-5.3°C 87% 2.9 mph SW4.7 kmh SW 6.0 mph9.7 kmh 30.22 in1023.4 mb 0.00 in0.0 mm 0.00 in0.0 mm 0.00 in0.0 mm
06:41 AM 25.9°F-3.4°C 22.5°F-5.3°C 87% 2.9 mph SSW4.7 kmh SSW 7.0 mph11.3 kmh 30.22 in1023.4 mb 0.00 in0.0 mm 0.00 in0.0 mm 0.00 in0.0 mm
06:36 AM 25.9°F-3.4°C 22.5°F-5.3°C 87% 2.9 mph S4.7 kmh S 4.9 mph7.9 kmh 30.22 in1023.4 mb 0.00 in0.0 mm 0.00 in0.0 mm 0.00 in0.0 mm
06:31 AM 25.9°F-3.4°C 22.5°F-5.3°C 87% 2.9 mph S4.7 kmh S 6.0 mph9.7 kmh 30.23 in1023.7 mb 0.00 in0.0 mm 0.00 in0.0 mm 0.00 in0.0 mm
06:26 AM 25.9°F-3.4°C 22.5°F-5.3°C 87% 2.0 mph SW3.2 kmh SW 4.9 mph7.9 kmh 30.23 in1023.7 mb 0.00 in0.0 mm 0.00 in0.0 mm 0.00 in0.0 mm
06:21 AM 25.7°F-3.5°C 22.5°F-5.3°C 87% 2.0 mph SSW3.2 kmh SSW 7.0 mph11.3 kmh 30.23 in1023.7 mb 0.00 in0.0 mm 0.00 in0.0 mm 0.00 in0.0 mm
06:16 AM 25.7°F-3.5°C 22.5°F-5.3°C 87% 2.0 mph SSW3.2 kmh SSW 4.9 mph7.9 kmh 30.23 in1023.7 mb 0.00 in0.0 mm 0.00 in0.0 mm 0.00 in0.0 mm
06:11 AM 25.7°F-3.5°C 22.1°F-5.5°C 86% 2.0 mph SW3.2 kmh SW 4.9 mph7.9 kmh 30.23 in1023.7 mb 0.00 in0.0 mm 0.00 in0.0 mm 0.00 in0.0 mm
06:06 AM 25.9°F-3.4°C 22.3°F-5.4°C 86% 2.9 mph SW4.7 kmh SW 7.0 mph11.3 kmh 30.23 in1023.7 mb 0.00 in0.0 mm 0.00 in0.0 mm 0.00 in0.0 mm
06:01 AM 25.9°F-3.4°C 22.3°F-5.4°C 86% 2.9 mph SSW4.7 kmh SSW 4.9 mph7.9 kmh 30.23 in1023.7 mb 0.00 in0.0 mm 0.00 in0.0 mm 0.00 in0.0 mm
05:56 AM 25.7°F-3.5°C 22.1°F-5.5°C 86% 2.0 mph SSW3.2 kmh SSW 8.1 mph13.0 kmh 30.23 in1023.7 mb 0.00 in0.0 mm 0.00 in0.0 mm 0.00 in0.0 mm
05:51 AM 25.7°F-3.5°C 22.1°F-5.5°C 86% 2.0 mph S3.2 kmh S 8.9 mph14.3 kmh 30.23 in1023.7 mb 0.00 in0.0 mm 0.00 in0.0 mm 0.00 in0.0 mm
05:46 AM 25.7°F-3.5°C 22.1°F-5.5°C 86% 2.0 mph SSW3.2 kmh SSW 4.9 mph7.9 kmh 30.23 in1023.7 mb 0.00 in0.0 mm 0.00 in0.0 mm 0.00 in0.0 mm
05:41 AM 25.7°F-3.5°C 22.1°F-5.5°C 86% 2.0 mph SW3.2 kmh SW 4.9 mph7.9 kmh 30.23 in1023.7 mb 0.00 in0.0 mm 0.00 in0.0 mm 0.00 in0.0 mm
05:36 AM 25.9°F-3.4°C 22.3°F-5.4°C 86% 2.9 mph S4.7 kmh S 6.0 mph9.7 kmh 30.23 in1023.7 mb 0.00 in0.0 mm 0.00 in0.0 mm 0.00 in0.0 mm
05:31 AM 25.7°F-3.5°C 22.1°F-5.5°C 86% 2.9 mph S4.7 kmh S 8.9 mph14.3 kmh 30.23 in1023.7 mb 0.00 in0.0 mm 0.00 in0.0 mm 0.00 in0.0 mm
05:26 AM 25.7°F-3.5°C 22.1°F-5.5°C 86% 2.0 mph SW3.2 kmh SW 4.9 mph7.9 kmh 30.23 in1023.7 mb 0.00 in0.0 mm 0.00 in0.0 mm 0.00 in0.0 mm
05:21 AM 25.7°F-3.5°C 22.1°F-5.5°C 86% 2.0 mph SSW3.2 kmh SSW 4.0 mph6.4 kmh 30.23 in1023.7 mb 0.00 in0.0 mm 0.00 in0.0 mm 0.00 in0.0 mm
05:16 AM 25.7°F-3.5°C 22.1°F-5.5°C 86% 2.0 mph SSW3.2 kmh SSW 6.0 mph9.7 kmh 30.24 in1024.0 mb 0.00 in0.0 mm 0.00 in0.0 mm 0.00 in0.0 mm
05:11 AM 25.5°F-3.6°C 21.9°F-5.6°C 86% 0.9 mph S1.4 kmh S 6.0 mph9.7 kmh 30.24 in1024.0 mb 0.00 in0.0 mm 0.00 in0.0 mm 0.00 in0.0 mm
05:06 AM 25.5°F-3.6°C 22.3°F-5.4°C 87% 2.0 mph SSW3.2 kmh SSW 5.0 mph8.0 kmh 30.23 in1023.7 mb 0.00 in0.0 mm 0.00 in0.0 mm 0.00 in0.0 mm
05:01 AM 25.5°F-3.6°C 21.9°F-5.6°C 86% 0.9 mph SSW1.4 kmh SSW 4.0 mph6.4 kmh 30.24 in1024.0 mb 0.00 in0.0 mm 0.00 in0.0 mm 0.00 in0.0 mm
04:56 AM 25.3°F-3.7°C 21.7°F-5.7°C 86% 0.9 mph SSW1.4 kmh SSW 4.0 mph6.4 kmh 30.24 in1024.0 mb 0.00 in0.0 mm 0.00 in0.0 mm 0.00 in0.0 mm
04:51 AM 25.3°F-3.7°C 22.1°F-5.5°C 87% 0.9 mph SW1.4 kmh SW 2.9 mph4.7 kmh 30.24 in1024.0 mb 0.00 in0.0 mm 0.00 in0.0 mm 0.00 in0.0 mm
04:46 AM 25.3°F-3.7°C 22.1°F-5.5°C 87% 0.9 mph SSW1.4 kmh SSW 2.9 mph4.7 kmh 30.24 in1024.0 mb 0.00 in0.0 mm 0.00 in0.0 mm 0.00 in0.0 mm
04:41 AM 25.3°F-3.7°C 22.1°F-5.5°C 87% 0.9 mph SW1.4 kmh SW 5.0 mph8.0 kmh 30.24 in1024.0 mb 0.00 in0.0 mm 0.00 in0.0 mm 0.00 in0.0 mm
04:36 AM 25.3°F-3.7°C 22.1°F-5.5°C 87% 0.9 mph SW1.4 kmh SW 2.9 mph4.7 kmh 30.25 in1024.4 mb 0.00 in0.0 mm 0.00 in0.0 mm 0.00 in0.0 mm
04:31 AM 25.3°F-3.7°C 22.1°F-5.5°C 87% 0.9 mph SSW1.4 kmh SSW 2.9 mph4.7 kmh 30.25 in1024.4 mb 0.00 in0.0 mm 0.00 in0.0 mm 0.00 in0.0 mm
04:26 AM 25.2°F-3.8°C 21.9°F-5.6°C 87% 0.9 mph SSW1.4 kmh SSW 4.9 mph7.9 kmh 30.25 in1024.4 mb 0.00 in0.0 mm 0.00 in0.0 mm 0.00 in0.0 mm
04:21 AM 25.2°F-3.8°C 21.9°F-5.6°C 87% 0.9 mph SSW1.4 kmh SSW 2.0 mph3.2 kmh 30.25 in1024.4 mb 0.00 in0.0 mm 0.00 in0.0 mm 0.00 in0.0 mm
04:16 AM 25.3°F-3.7°C 22.1°F-5.5°C 87% 0.9 mph SSE1.4 kmh SSE 4.0 mph6.4 kmh 30.25 in1024.4 mb 0.00 in0.0 mm 0.00 in0.0 mm 0.00 in0.0 mm
04:11 AM 25.3°F-3.7°C 22.1°F-5.5°C 87% 0.9 mph S1.4 kmh S 4.0 mph6.4 kmh 30.25 in1024.4 mb 0.00 in0.0 mm 0.00 in0.0 mm 0.00 in0.0 mm
04:06 AM 25.2°F-3.8°C 21.9°F-5.6°C 87% 0.9 mph S1.4 kmh S 2.9 mph4.7 kmh 30.25 in1024.4 mb 0.00 in0.0 mm 0.00 in0.0 mm 0.00 in0.0 mm
04:01 AM 25.3°F-3.7°C 22.1°F-5.5°C 87% 0.9 mph SW1.4 kmh SW 2.9 mph4.7 kmh 30.25 in1024.4 mb 0.00 in0.0 mm 0.00 in0.0 mm 0.00 in0.0 mm
03:56 AM 25.2°F-3.8°C 21.9°F-5.6°C 87% 0.9 mph SSW1.4 kmh SSW 2.9 mph4.7 kmh 30.25 in1024.4 mb 0.00 in0.0 mm 0.00 in0.0 mm 0.00 in0.0 mm
03:51 AM 25.2°F-3.8°C 21.9°F-5.6°C 87% 0.9 mph SSW1.4 kmh SSW 4.0 mph6.4 kmh 30.25 in1024.4 mb 0.00 in0.0 mm 0.00 in0.0 mm 0.00 in0.0 mm
03:46 AM 25.3°F-3.7°C 22.1°F-5.5°C 87% 0.9 mph SW1.4 kmh SW 4.9 mph7.9 kmh 30.25 in1024.4 mb 0.00 in0.0 mm 0.00 in0.0 mm 0.00 in0.0 mm
03:41 AM 25.3°F-3.7°C 21.7°F-5.7°C 86% 0.9 mph SSW1.4 kmh SSW 4.0 mph6.4 kmh 30.25 in1024.4 mb 0.00 in0.0 mm 0.00 in0.0 mm 0.00 in0.0 mm
03:36 AM 25.3°F-3.7°C 21.7°F-5.7°C 86% 0.9 mph SW1.4 kmh SW 2.0 mph3.2 kmh 30.26 in1024.7 mb 0.00 in0.0 mm 0.00 in0.0 mm 0.00 in0.0 mm
03:30 AM 25.3°F-3.7°C 21.7°F-5.7°C 86% 0.9 mph SSW1.4 kmh SSW 5.0 mph8.0 kmh 30.26 in1024.7 mb 0.00 in0.0 mm 0.00 in0.0 mm 0.00 in0.0 mm
03:25 AM 25.5°F-3.6°C 21.9°F-5.6°C 86% Calm Calm 2.9 mph4.7 kmh 30.26 in1024.7 mb 0.00 in0.0 mm 0.00 in0.0 mm 0.00 in0.0 mm
03:20 AM 25.5°F-3.6°C 21.6°F-5.8°C 85% Calm Calm 2.0 mph3.2 kmh 30.26 in1024.7 mb 0.00 in0.0 mm 0.00 in0.0 mm 0.00 in0.0 mm
03:15 AM 25.7°F-3.5°C 21.7°F-5.7°C 85% 0.9 mph SSW1.4 kmh SSW 2.9 mph4.7 kmh 30.26 in1024.7 mb 0.00 in0.0 mm 0.00 in0.0 mm 0.00 in0.0 mm
03:10 AM 25.9°F-3.4°C 21.9°F-5.6°C 85% 0.9 mph SW1.4 kmh SW 4.0 mph6.4 kmh 30.26 in1024.7 mb 0.00 in0.0 mm 0.00 in0.0 mm 0.00 in0.0 mm
03:05 AM 25.9°F-3.4°C 21.9°F-5.6°C 85% 0.9 mph SW1.4 kmh SW 2.0 mph3.2 kmh 30.26 in1024.7 mb 0.00 in0.0 mm 0.00 in0.0 mm 0.00 in0.0 mm
03:00 AM 26.1°F-3.3°C 22.1°F-5.5°C 85% 0.9 mph SW1.4 kmh SW 2.0 mph3.2 kmh 30.26 in1024.7 mb 0.00 in0.0 mm 0.00 in0.0 mm 0.00 in0.0 mm
02:55 AM 26.1°F-3.3°C 21.9°F-5.6°C 84% 2.0 mph SW3.2 kmh SW 2.9 mph4.7 kmh 30.26 in1024.7 mb 0.00 in0.0 mm 0.00 in0.0 mm 0.00 in0.0 mm
02:50 AM 26.1°F-3.3°C 21.9°F-5.6°C 84% 2.9 mph SW4.7 kmh SW 4.9 mph7.9 kmh 30.26 in1024.7 mb 0.00 in0.0 mm 0.00 in0.0 mm 0.00 in0.0 mm
02:45 AM 26.2°F-3.2°C 22.1°F-5.5°C 84% 2.0 mph SSE3.2 kmh SSE 4.9 mph7.9 kmh 30.26 in1024.7 mb 0.00 in0.0 mm 0.00 in0.0 mm 0.00 in0.0 mm
02:40 AM 26.2°F-3.2°C 22.1°F-5.5°C 84% 0.9 mph S1.4 kmh S 4.9 mph7.9 kmh 30.26 in1024.7 mb 0.00 in0.0 mm 0.00 in0.0 mm 0.00 in0.0 mm
02:35 AM 26.4°F-3.1°C 22.3°F-5.4°C 84% 0.9 mph SW1.4 kmh SW 4.9 mph7.9 kmh 30.26 in1024.7 mb 0.00 in0.0 mm 0.00 in0.0 mm 0.00 in0.0 mm
02:30 AM 26.4°F-3.1°C 21.9°F-5.6°C 83% 0.9 mph SSW1.4 kmh SSW 0.9 mph1.4 kmh 30.27 in1025.1 mb 0.00 in0.0 mm 0.00 in0.0 mm 0.00 in0.0 mm
02:25 AM 26.6°F-3.0°C 22.1°F-5.5°C 83% 0.9 mph SSW1.4 kmh SSW 4.0 mph6.4 kmh 30.27 in1025.1 mb 0.00 in0.0 mm 0.00 in0.0 mm 0.00 in0.0 mm
02:20 AM 26.6°F-3.0°C 22.1°F-5.5°C 83% 2.0 mph S3.2 kmh S 4.0 mph6.4 kmh 30.27 in1025.1 mb 0.00 in0.0 mm 0.00 in0.0 mm 0.00 in0.0 mm
02:15 AM 26.8°F-2.9°C 22.3°F-5.4°C 83% 0.9 mph SSW1.4 kmh SSW 4.0 mph6.4 kmh 30.27 in1025.1 mb 0.00 in0.0 mm 0.00 in0.0 mm 0.00 in0.0 mm
02:10 AM 26.8°F-2.9°C 22.3°F-5.4°C 83% 0.9 mph SW1.4 kmh SW 2.0 mph3.2 kmh 30.27 in1025.1 mb 0.00 in0.0 mm 0.00 in0.0 mm 0.00 in0.0 mm
02:05 AM 26.8°F-2.9°C 22.1°F-5.5°C 82% 0.9 mph S1.4 kmh S 2.9 mph4.7 kmh 30.27 in1025.1 mb 0.00 in0.0 mm 0.00 in0.0 mm 0.00 in0.0 mm
02:00 AM 26.8°F-2.9°C 22.1°F-5.5°C 82% 0.9 mph SSE1.4 kmh SSE 2.9 mph4.7 kmh 30.27 in1025.1 mb 0.00 in0.0 mm 0.00 in0.0 mm 0.00 in0.0 mm
01:55 AM 26.8°F-2.9°C 22.3°F-5.4°C 83% 0.9 mph SW1.4 kmh SW 2.9 mph4.7 kmh 30.27 in1025.1 mb 0.00 in0.0 mm 0.00 in0.0 mm 0.00 in0.0 mm
01:50 AM 26.6°F-3.0°C 22.1°F-5.5°C 83% 0.9 mph S1.4 kmh S 4.0 mph6.4 kmh 30.27 in1025.1 mb 0.00 in0.0 mm 0.00 in0.0 mm 0.00 in0.0 mm
01:45 AM 26.4°F-3.1°C 21.9°F-5.6°C 83% 0.9 mph SW1.4 kmh SW 2.9 mph4.7 kmh 30.27 in1025.1 mb 0.00 in0.0 mm 0.00 in0.0 mm 0.00 in0.0 mm
01:40 AM 26.2°F-3.2°C 21.7°F-5.7°C 83% 2.0 mph SSE3.2 kmh SSE 2.9 mph4.7 kmh 30.27 in1025.1 mb 0.00 in0.0 mm 0.00 in0.0 mm 0.00 in0.0 mm
01:35 AM 26.2°F-3.2°C 21.7°F-5.7°C 83% 2.0 mph SSW3.2 kmh SSW 4.9 mph7.9 kmh 30.28 in1025.4 mb 0.00 in0.0 mm 0.00 in0.0 mm 0.00 in0.0 mm
01:30 AM 26.1°F-3.3°C 21.6°F-5.8°C 83% 2.0 mph SW3.2 kmh SW 4.9 mph7.9 kmh 30.28 in1025.4 mb 0.00 in0.0 mm 0.00 in0.0 mm 0.00 in0.0 mm
01:25 AM 25.9°F-3.4°C 21.7°F-5.7°C 84% 2.0 mph SSW3.2 kmh SSW 4.9 mph7.9 kmh 30.28 in1025.4 mb 0.00 in0.0 mm 0.00 in0.0 mm 0.00 in0.0 mm
01:20 AM 25.9°F-3.4°C 21.7°F-5.7°C 84% 2.0 mph SW3.2 kmh SW 2.9 mph4.7 kmh 30.29 in1025.7 mb 0.00 in0.0 mm 0.00 in0.0 mm 0.00 in0.0 mm
01:15 AM 25.7°F-3.5°C 21.6°F-5.8°C 84% 2.0 mph SW3.2 kmh SW 4.0 mph6.4 kmh 30.29 in1025.7 mb 0.00 in0.0 mm 0.00 in0.0 mm 0.00 in0.0 mm
01:10 AM 25.5°F-3.6°C 21.4°F-5.9°C 84% 0.9 mph SSW1.4 kmh SSW 2.9 mph4.7 kmh 30.29 in1025.7 mb 0.00 in0.0 mm 0.00 in0.0 mm 0.00 in0.0 mm
01:05 AM 25.7°F-3.5°C 21.2°F-6.0°C 83% Calm Calm 3.0 mph4.8 kmh 30.29 in1025.7 mb 0.00 in0.0 mm 0.00 in0.0 mm 0.00 in0.0 mm
01:00 AM 25.7°F-3.5°C 21.6°F-5.8°C 84% Calm Calm 2.0 mph3.2 kmh 30.29 in1025.7 mb 0.00 in0.0 mm 0.00 in0.0 mm 0.00 in0.0 mm
12:55 AM 25.5°F-3.6°C 21.4°F-5.9°C 84% Calm Calm 2.9 mph4.7 kmh 30.29 in1025.7 mb 0.00 in0.0 mm 0.00 in0.0 mm 0.00 in0.0 mm
12:50 AM 25.3°F-3.7°C 21.2°F-6.0°C 84% 0.9 mph S1.4 kmh S 2.0 mph3.2 kmh 30.29 in1025.7 mb 0.00 in0.0 mm 0.00 in0.0 mm 0.00 in0.0 mm
12:45 AM 25.2°F-3.8°C 21.0°F-6.1°C 84% 0.9 mph S1.4 kmh S 4.0 mph6.4 kmh 30.29 in1025.7 mb 0.00 in0.0 mm 0.00 in0.0 mm 0.00 in0.0 mm
12:40 AM 25.0°F-3.9°C 21.2°F-6.0°C 85% 0.9 mph SSE1.4 kmh SSE 3.0 mph4.8 kmh 30.29 in1025.7 mb 0.00 in0.0 mm 0.00 in0.0 mm 0.00 in0.0 mm
12:35 AM 24.8°F-4.0°C 21.0°F-6.1°C 85% 0.9 mph SE1.4 kmh SE 3.0 mph4.8 kmh 30.30 in1026.1 mb 0.00 in0.0 mm 0.00 in0.0 mm 0.00 in0.0 mm
12:30 AM 24.6°F-4.1°C 20.8°F-6.2°C 85% Calm Calm 2.0 mph3.2 kmh 30.30 in1026.1 mb 0.00 in0.0 mm 0.00 in0.0 mm 0.00 in0.0 mm
12:25 AM 24.6°F-4.1°C 20.8°F-6.2°C 85% Calm Calm 2.0 mph3.2 kmh 30.30 in1026.1 mb 0.00 in0.0 mm 0.00 in0.0 mm 0.00 in0.0 mm
12:20 AM 24.4°F-4.2°C 20.7°F-6.3°C 85% 0.9 mph S1.4 kmh S 2.0 mph3.2 kmh 30.31 in1026.4 mb 0.00 in0.0 mm 0.00 in0.0 mm 0.00 in0.0 mm
12:15 AM 24.4°F-4.2°C 20.7°F-6.3°C 85% 0.9 mph SSW1.4 kmh SSW 2.9 mph4.7 kmh 30.30 in1026.1 mb 0.00 in0.0 mm 0.00 in0.0 mm 0.00 in0.0 mm
12:10 AM 24.3°F-4.3°C 20.5°F-6.4°C 85% Calm Calm 3.0 mph4.8 kmh 30.30 in1026.1 mb 0.00 in0.0 mm 0.00 in0.0 mm 0.00 in0.0 mm
12:05 AM 24.3°F-4.3°C 20.5°F-6.4°C 85% Calm Calm 2.0 mph3.2 kmh 30.30 in1026.1 mb 0.00 in0.0 mm 0.00 in0.0 mm 0.00 in0.0 mm
12:00 AM 24.3°F-4.3°C 20.5°F-6.4°C 85% Calm Calm 2.0 mph3.2 kmh 30.30 in1026.1 mb 0.00 in0.0 mm 0.00 in0.0 mm 0.00 in0.0 mm